createdAt,value
2018-05-16T00:00:38.737Z,14.46
2018-05-16T00:03:07.065Z,14.36
2018-05-16T00:05:35.379Z,14.32
2018-05-16T00:08:03.694Z,14.30
2018-05-16T00:10:32.031Z,14.30
2018-05-16T00:13:00.324Z,14.33
2018-05-16T00:15:28.977Z,14.30
2018-05-16T00:17:57.283Z,14.40
2018-05-16T00:20:25.582Z,14.43
2018-05-16T00:22:53.916Z,14.43
2018-05-16T00:25:22.187Z,14.48
2018-05-16T00:27:50.523Z,14.50
2018-05-16T00:30:18.805Z,14.50
2018-05-16T00:32:47.078Z,14.51
2018-05-16T00:35:16.132Z,14.67
2018-05-16T00:37:44.436Z,14.79
2018-05-16T00:40:12.744Z,14.71
2018-05-16T00:42:41.042Z,14.76
2018-05-16T00:45:09.355Z,14.71
2018-05-16T00:47:37.673Z,14.90
2018-05-16T00:50:06.738Z,14.84
2018-05-16T00:52:35.076Z,14.86
2018-05-16T00:55:03.430Z,14.77
2018-05-16T00:57:32.462Z,14.69
2018-05-16T01:00:00.777Z,14.71
2018-05-16T01:02:29.089Z,14.73
2018-05-16T01:04:57.398Z,14.56
2018-05-16T01:07:25.748Z,14.52
2018-05-16T01:09:54.046Z,14.52
2018-05-16T01:12:22.544Z,14.46
2018-05-16T01:14:50.813Z,14.46
2018-05-16T01:17:19.099Z,14.42
2018-05-16T01:19:47.398Z,14.42
2018-05-16T01:22:15.726Z,14.33
2018-05-16T01:24:44.041Z,14.33
2018-05-16T01:27:12.344Z,14.24
2018-05-16T01:29:41.410Z,14.16
2018-05-16T01:32:09.714Z,14.15
2018-05-16T01:34:38.009Z,14.12
2018-05-16T01:37:07.142Z,14.12
2018-05-16T01:39:35.461Z,14.16
2018-05-16T01:42:03.768Z,14.04
2018-05-16T01:44:32.083Z,13.96
2018-05-16T01:47:00.400Z,13.90
2018-05-16T01:49:28.714Z,13.84
2018-05-16T01:51:56.951Z,13.85
2018-05-16T01:54:25.293Z,14.10
2018-05-16T01:56:53.585Z,13.93
2018-05-16T01:59:21.922Z,13.82
2018-05-16T02:01:50.209Z,13.78
2018-05-16T02:04:18.508Z,13.76
2018-05-16T02:06:46.823Z,13.82
2018-05-16T02:09:15.941Z,13.83
2018-05-16T02:11:44.313Z,13.78
2018-05-16T02:14:13.334Z,13.90
2018-05-16T02:16:41.715Z,13.76
2018-05-16T02:19:10.029Z,13.82
2018-05-16T02:21:38.357Z,13.75
2018-05-16T02:24:06.657Z,13.79
2018-05-16T02:26:34.985Z,13.90
2018-05-16T02:29:04.025Z,13.81
2018-05-16T02:31:32.347Z,13.86
2018-05-16T02:34:00.629Z,13.63
2018-05-16T02:36:29.701Z,13.61
2018-05-16T02:38:57.992Z,13.59
2018-05-16T02:41:26.334Z,13.54
2018-05-16T02:43:54.646Z,13.50
2018-05-16T02:46:22.937Z,13.46
2018-05-16T02:48:52.003Z,13.39
2018-05-16T02:51:20.307Z,13.36
2018-05-16T02:53:49.405Z,13.36
2018-05-16T02:56:18.449Z,13.44
2018-05-16T02:58:46.743Z,13.60
2018-05-16T03:01:15.065Z,13.59
2018-05-16T03:03:44.192Z,13.60
2018-05-16T03:06:12.508Z,13.53
2018-05-16T03:08:40.829Z,13.50
2018-05-16T03:11:09.380Z,13.45
2018-05-16T03:13:37.680Z,13.43
2018-05-16T03:16:06.729Z,13.39
2018-05-16T03:18:35.036Z,13.35
2018-05-16T03:21:03.333Z,13.36
2018-05-16T03:23:32.397Z,13.32
2018-05-16T03:26:00.692Z,13.32
2018-05-16T03:28:29.800Z,13.29
2018-05-16T03:30:58.896Z,13.34
2018-05-16T03:33:27.954Z,13.56
2018-05-16T03:35:56.292Z,13.48
2018-05-16T03:38:24.592Z,13.55
2018-05-16T03:40:52.883Z,13.46
2018-05-16T03:43:21.214Z,13.51
2018-05-16T03:45:49.547Z,13.54
2018-05-16T03:48:17.851Z,13.61
2018-05-16T03:50:46.915Z,13.59
2018-05-16T03:53:15.225Z,13.51
2018-05-16T03:55:44.273Z,13.45
2018-05-16T03:58:30.365Z,13.47
2018-05-16T04:01:16.309Z,13.58
2018-05-16T04:04:02.846Z,13.66
2018-05-16T04:06:31.201Z,13.80
2018-05-16T04:09:00.346Z,13.48
2018-05-16T04:11:28.695Z,13.80
2018-05-16T04:13:57.010Z,13.79
2018-05-16T04:16:25.308Z,14.04
2018-05-16T04:18:53.593Z,14.00
2018-05-16T04:21:22.644Z,14.30
2018-05-16T04:23:50.942Z,13.96
2018-05-16T04:26:19.254Z,13.87
2018-05-16T04:28:48.425Z,13.98
2018-05-16T04:31:16.697Z,14.27
2018-05-16T04:33:45.006Z,14.35
2018-05-16T04:36:14.096Z,14.40
2018-05-16T04:38:43.184Z,14.50
2018-05-16T04:41:11.491Z,14.19
2018-05-16T04:43:39.812Z,15.42
2018-05-16T04:46:08.118Z,15.01
2018-05-16T04:48:36.432Z,15.13
2018-05-16T04:51:04.763Z,15.45
2018-05-16T04:53:33.063Z,18.23
2018-05-16T04:56:02.108Z,20.21
2018-05-16T04:58:30.416Z,20.18
2018-05-16T05:00:58.715Z,22.13
2018-05-16T05:03:27.774Z,23.20
2018-05-16T05:05:56.067Z,20.43
2018-05-16T05:08:25.120Z,20.58
2018-05-16T05:10:53.416Z,20.77
2018-05-16T05:13:21.729Z,20.46
2018-05-16T05:15:50.832Z,19.65
2018-05-16T05:18:20.010Z,23.74
2018-05-16T05:20:48.206Z,23.06
2018-05-16T05:23:17.266Z,21.85
2018-05-16T05:25:45.589Z,22.07
2018-05-16T05:28:14.626Z,21.79
2018-05-16T05:30:42.932Z,23.05
2018-05-16T05:33:11.272Z,22.42
2018-05-16T05:35:39.549Z,17.17
2018-05-16T05:38:07.852Z,17.80
2018-05-16T05:40:36.146Z,18.19
2018-05-16T05:43:04.467Z,18.80
2018-05-16T05:45:32.780Z,17.59
2018-05-16T05:48:01.133Z,17.42
2018-05-16T05:50:29.425Z,16.92
2018-05-16T05:52:57.730Z,17.13
2018-05-16T05:55:26.068Z,16.63
2018-05-16T05:57:54.359Z,17.62
2018-05-16T06:00:22.683Z,19.52
2018-05-16T06:02:51.740Z,21.80
2018-05-16T06:05:20.081Z,19.41
2018-05-16T06:07:48.542Z,20.91
2018-05-16T06:10:17.599Z,19.75
2018-05-16T06:12:46.010Z,20.72
2018-05-16T06:15:14.301Z,18.50
2018-05-16T06:17:42.597Z,17.38
2018-05-16T06:20:10.913Z,16.21
2018-05-16T06:22:39.461Z,16.43
2018-05-16T06:25:07.745Z,16.34
2018-05-16T06:27:36.043Z,16.12
2018-05-16T06:30:04.487Z,16.14
2018-05-16T06:32:32.792Z,15.67
2018-05-16T06:35:01.117Z,15.59
2018-05-16T06:37:30.171Z,15.68
2018-05-16T06:39:59.211Z,16.06
2018-05-16T06:42:28.321Z,16.05
2018-05-16T06:44:56.629Z,15.92
2018-05-16T06:47:24.928Z,15.86
2018-05-16T06:49:53.214Z,16.03
2018-05-16T06:52:21.525Z,16.99
2018-05-16T06:54:50.582Z,18.73
2018-05-16T06:57:18.926Z,18.47
2018-05-16T06:59:47.250Z,17.62
2018-05-16T07:02:15.553Z,18.73
2018-05-16T07:04:43.897Z,17.63
2018-05-16T07:07:12.379Z,17.70
2018-05-16T07:09:40.716Z,16.54
2018-05-16T07:12:09.031Z,16.39
2018-05-16T07:14:38.082Z,16.32
2018-05-16T07:17:06.387Z,16.16
2018-05-16T07:19:34.679Z,16.11
2018-05-16T07:22:02.991Z,16.27
2018-05-16T07:24:32.061Z,16.53
2018-05-16T07:27:00.401Z,16.21
2018-05-16T07:29:28.721Z,16.58
2018-05-16T07:31:57.025Z,16.76
2018-05-16T07:34:25.375Z,16.12
2018-05-16T07:36:53.681Z,16.07
2018-05-16T07:39:21.961Z,16.05
2018-05-16T07:41:50.343Z,16.12
2018-05-16T07:44:18.645Z,15.92
2018-05-16T07:46:46.957Z,16.13
2018-05-16T07:49:15.346Z,15.88
2018-05-16T07:51:43.629Z,15.88
2018-05-16T07:54:12.688Z,16.14
2018-05-16T07:56:40.984Z,16.47
2018-05-16T07:59:13.560Z,16.19
2018-05-16T08:01:41.864Z,16.31
2018-05-16T08:04:10.912Z,16.26
2018-05-16T08:06:39.215Z,16.71
2018-05-16T08:09:07.538Z,16.74
2018-05-16T08:11:35.825Z,16.81
2018-05-16T08:14:04.146Z,17.05
2018-05-16T08:16:32.440Z,17.47
2018-05-16T08:19:01.509Z,17.77
2018-05-16T08:21:29.812Z,17.62
2018-05-16T08:23:58.896Z,17.85
2018-05-16T08:26:27.237Z,17.39
2018-05-16T08:28:55.558Z,17.39
2018-05-16T08:31:23.886Z,17.73
2018-05-16T08:33:52.210Z,17.50
2018-05-16T08:36:20.553Z,17.15
2018-05-16T08:38:48.855Z,17.24
2018-05-16T08:41:17.135Z,17.29
2018-05-16T08:43:45.507Z,17.84
2018-05-16T08:46:15.402Z,17.77
2018-05-16T08:48:43.705Z,17.67
2018-05-16T08:51:12.016Z,17.52
2018-05-16T08:53:40.359Z,17.41
2018-05-16T08:56:08.697Z,17.56
2018-05-16T08:58:37.010Z,17.11
2018-05-16T09:01:05.373Z,17.93
2018-05-16T09:03:33.622Z,17.29
2018-05-16T09:06:01.927Z,17.41
2018-05-16T09:11:04.750Z,17.76
2018-05-16T09:13:33.083Z,17.80
2018-05-16T09:16:01.389Z,17.81
2018-05-16T09:18:29.706Z,17.59
2018-05-16T09:20:58.785Z,17.51
2018-05-16T09:23:27.066Z,17.79
2018-05-16T09:25:55.373Z,17.56
2018-05-16T09:28:24.420Z,17.61
2018-05-16T09:30:52.762Z,17.86
2018-05-16T09:33:21.217Z,17.97
2018-05-16T09:35:50.249Z,17.85
2018-05-16T09:38:18.604Z,17.88
2018-05-16T09:40:47.009Z,17.48
2018-05-16T09:43:15.317Z,18.43
2018-05-16T09:45:43.674Z,18.26
2018-05-16T09:48:12.676Z,18.49
2018-05-16T09:50:41.034Z,18.18
2018-05-16T09:53:09.349Z,18.35
2018-05-16T09:55:37.670Z,18.46
2018-05-16T09:58:07.104Z,18.34
2018-05-16T10:00:35.396Z,18.21
2018-05-16T10:03:03.717Z,18.62
2018-05-16T10:05:32.765Z,18.37
2018-05-16T10:08:01.052Z,18.59
2018-05-16T10:10:29.436Z,18.11
2018-05-16T10:12:57.808Z,18.05
2018-05-16T10:15:26.078Z,18.31
2018-05-16T10:17:54.471Z,18.20
2018-05-16T10:20:22.772Z,18.02
2018-05-16T10:22:51.949Z,18.34
2018-05-16T10:25:20.324Z,18.03
2018-05-16T10:27:49.415Z,18.04
2018-05-16T10:30:17.712Z,17.82
2018-05-16T10:32:46.044Z,17.92
2018-05-16T10:35:14.348Z,17.85
2018-05-16T10:37:42.675Z,17.89
2018-05-16T10:40:10.989Z,17.78
2018-05-16T10:42:39.309Z,18.07
2018-05-16T10:45:07.804Z,18.26
2018-05-16T10:47:36.166Z,18.15
2018-05-16T10:50:05.242Z,18.08
2018-05-16T10:52:33.569Z,17.88
2018-05-16T10:55:01.890Z,17.91
2018-05-16T10:57:30.364Z,17.94
2018-05-16T10:59:58.652Z,17.77
2018-05-16T11:02:26.955Z,17.42
2018-05-16T11:04:55.250Z,17.38
2018-05-16T11:07:24.402Z,17.35
2018-05-16T11:09:52.719Z,17.37
2018-05-16T11:12:21.796Z,17.25
2018-05-16T11:14:50.151Z,17.40
2018-05-16T11:17:18.464Z,17.68
2018-05-16T11:19:47.576Z,17.49
2018-05-16T11:22:15.916Z,17.35
2018-05-16T11:24:44.204Z,17.42
2018-05-16T11:27:12.653Z,17.76
2018-05-16T11:29:40.965Z,18.01
2018-05-16T11:32:09.301Z,17.79
2018-05-16T11:34:37.607Z,17.63
2018-05-16T11:37:05.934Z,17.68
2018-05-16T11:39:34.472Z,17.70
2018-05-16T11:42:02.897Z,17.76
2018-05-16T11:44:31.217Z,18.04
2018-05-16T11:46:59.525Z,18.39
2018-05-16T11:49:27.853Z,18.31
2018-05-16T11:51:56.151Z,18.71
2018-05-16T11:54:24.548Z,18.92
2018-05-16T11:56:52.835Z,18.52
2018-05-16T11:59:21.255Z,18.75
2018-05-16T12:01:49.566Z,18.76
2018-05-16T12:04:18.012Z,19.76
2018-05-16T12:06:46.324Z,19.83
2018-05-16T12:09:14.730Z,19.89
2018-05-16T12:11:43.273Z,19.55
2018-05-16T12:14:11.553Z,19.12
2018-05-16T12:16:39.892Z,18.46
2018-05-16T12:19:08.955Z,18.50
2018-05-16T12:21:37.279Z,18.29
2018-05-16T12:24:05.605Z,18.49
2018-05-16T12:26:34.162Z,18.49
2018-05-16T12:29:02.521Z,18.75
2018-05-16T12:31:30.764Z,18.75
2018-05-16T12:33:59.880Z,19.34
2018-05-16T12:36:28.311Z,18.94
2018-05-16T12:38:56.551Z,18.90
2018-05-16T12:41:24.842Z,19.69
2018-05-16T12:43:53.159Z,19.58
2018-05-16T12:46:21.441Z,19.38
2018-05-16T12:48:49.755Z,19.91
2018-05-16T12:51:18.087Z,19.77
2018-05-16T12:53:46.725Z,19.42
2018-05-16T12:56:15.121Z,19.01
2018-05-16T12:58:43.503Z,18.98
2018-05-16T13:01:12.045Z,19.21
2018-05-16T13:03:40.641Z,19.02
2018-05-16T13:06:09.185Z,19.11
2018-05-16T13:08:37.557Z,19.68
2018-05-16T13:11:06.622Z,19.10
2018-05-16T13:13:34.958Z,19.90
2018-05-16T13:16:04.022Z,20.02
2018-05-16T13:18:32.350Z,19.28
2018-05-16T13:21:00.680Z,19.49
2018-05-16T13:23:29.790Z,19.05
2018-05-16T13:25:58.113Z,19.36
2018-05-16T13:28:27.350Z,20.31
2018-05-16T13:30:55.753Z,19.50
2018-05-16T13:33:24.408Z,20.04
2018-05-16T13:35:52.860Z,19.66
2018-05-16T13:38:21.167Z,19.97
2018-05-16T13:40:49.498Z,19.93
2018-05-16T13:43:18.582Z,20.74
2018-05-16T13:45:47.661Z,20.89
2018-05-16T13:48:15.953Z,20.63
2018-05-16T13:50:45.085Z,20.52
2018-05-16T13:53:13.522Z,20.56
2018-05-16T13:55:42.636Z,20.59
2018-05-16T13:58:11.732Z,20.99
2018-05-16T14:00:40.899Z,20.63
2018-05-16T14:03:09.342Z,20.68
2018-05-16T14:05:37.620Z,20.46
2018-05-16T14:08:05.969Z,20.10
2018-05-16T14:10:34.288Z,20.24
2018-05-16T14:13:02.609Z,19.80
2018-05-16T14:15:31.705Z,20.21
2018-05-16T14:18:00.785Z,20.92
2018-05-16T14:20:29.283Z,21.13
2018-05-16T14:22:58.416Z,20.89
2018-05-16T14:25:26.871Z,21.31
2018-05-16T14:27:55.984Z,21.20
2018-05-16T14:30:24.304Z,21.32
2018-05-16T14:32:52.638Z,21.39
2018-05-16T14:35:21.067Z,20.86
2018-05-16T14:37:49.364Z,20.18
2018-05-16T14:40:17.682Z,19.97
2018-05-16T14:42:46.081Z,19.87
2018-05-16T14:45:14.439Z,20.11
2018-05-16T14:47:42.780Z,19.65
2018-05-16T14:50:11.866Z,19.74
2018-05-16T14:52:40.160Z,19.82
2018-05-16T14:55:09.243Z,19.54
2018-05-16T14:57:37.572Z,19.19
2018-05-16T15:00:05.910Z,19.18
2018-05-16T15:02:34.992Z,19.22
2018-05-16T15:05:03.389Z,19.48
2018-05-16T15:07:33.035Z,19.50
2018-05-16T15:10:01.296Z,19.55
2018-05-16T15:12:29.739Z,19.78
2018-05-16T15:14:58.093Z,19.35
2018-05-16T15:17:26.390Z,19.59
2018-05-16T15:19:54.732Z,19.55
2018-05-16T15:22:23.048Z,19.85
2018-05-16T15:24:51.362Z,19.44
2018-05-16T15:27:19.711Z,19.41
2018-05-16T15:29:47.998Z,19.23
2018-05-16T15:32:17.122Z,19.02
2018-05-16T15:34:45.449Z,19.29
2018-05-16T15:37:13.764Z,18.74
2018-05-16T15:39:42.804Z,18.84
2018-05-16T15:42:11.233Z,18.67
2018-05-16T15:44:40.296Z,18.74
2018-05-16T15:47:08.683Z,18.63
2018-05-16T15:49:37.004Z,18.68
2018-05-16T15:52:05.313Z,18.54
2018-05-16T15:54:34.096Z,18.35
2018-05-16T15:57:02.376Z,18.41
2018-05-16T15:59:33.662Z,18.74
2018-05-16T16:02:02.775Z,18.68
2018-05-16T16:04:31.365Z,18.54
2018-05-16T16:06:59.722Z,18.34
2018-05-16T16:09:28.049Z,18.18
2018-05-16T16:11:56.360Z,18.25
2018-05-16T16:14:24.716Z,18.00
2018-05-16T16:16:53.030Z,17.76
2018-05-16T16:19:21.362Z,17.45
2018-05-16T16:21:49.658Z,17.63
2018-05-16T16:24:18.030Z,17.36
2018-05-16T16:26:46.386Z,17.21
2018-05-16T16:29:14.724Z,17.20
2018-05-16T16:31:43.239Z,16.98
2018-05-16T16:34:11.554Z,16.99
2018-05-16T16:36:39.881Z,16.87
2018-05-16T16:39:08.979Z,16.87
2018-05-16T16:41:38.461Z,16.70
2018-05-16T16:44:06.776Z,16.62
2018-05-16T16:46:35.122Z,16.59
2018-05-16T16:49:03.456Z,16.65
2018-05-16T16:51:31.747Z,16.63
2018-05-16T16:54:00.060Z,16.60
2018-05-16T16:56:28.376Z,16.66
2018-05-16T16:58:56.689Z,16.69
2018-05-16T17:01:24.999Z,16.67
2018-05-16T17:03:54.062Z,16.62
2018-05-16T17:06:22.451Z,16.46
2018-05-16T17:08:50.751Z,16.57
2018-05-16T17:11:19.977Z,16.47
2018-05-16T17:13:48.309Z,16.52
2018-05-16T17:16:16.672Z,16.29
2018-05-16T17:18:45.007Z,16.35
2018-05-16T17:21:13.309Z,16.46
2018-05-16T17:23:41.841Z,16.22
2018-05-16T17:26:10.985Z,16.21
2018-05-16T17:28:39.291Z,16.25
2018-05-16T17:31:07.628Z,16.29
2018-05-16T17:33:35.912Z,16.35
2018-05-16T17:36:04.321Z,16.26
2018-05-16T17:38:32.599Z,16.13
2018-05-16T17:41:01.729Z,16.02
2018-05-16T17:43:30.851Z,15.81
2018-05-16T17:45:59.169Z,15.74
2018-05-16T17:48:27.500Z,15.77
2018-05-16T17:50:55.830Z,15.79
2018-05-16T17:53:24.168Z,15.65
2018-05-16T17:55:52.490Z,15.64
2018-05-16T17:58:20.815Z,15.54
2018-05-16T18:00:49.152Z,15.80
2018-05-16T18:03:17.461Z,15.80
2018-05-16T18:05:46.666Z,15.85
2018-05-16T18:08:14.976Z,15.68
2018-05-16T18:10:43.338Z,15.65
2018-05-16T18:16:56.682Z,15.59
2018-05-16T18:19:24.981Z,15.62
2018-05-16T18:21:53.329Z,15.68
2018-05-16T18:24:21.647Z,15.77
2018-05-16T18:26:49.956Z,15.87
2018-05-16T18:29:18.405Z,15.83
2018-05-16T18:31:46.723Z,15.80
2018-05-16T18:34:15.064Z,16.01
2018-05-16T18:36:43.467Z,16.10
2018-05-16T18:39:11.844Z,16.01
2018-05-16T18:41:40.138Z,15.94
2018-05-16T18:44:09.289Z,15.91
2018-05-16T18:46:37.588Z,15.82
2018-05-16T18:49:05.971Z,15.73
2018-05-16T18:51:34.389Z,15.48
2018-05-16T18:54:03.508Z,15.25
2018-05-16T18:56:31.897Z,15.41
2018-05-16T18:59:04.673Z,15.36
2018-05-16T19:01:33.095Z,15.43
2018-05-16T19:04:02.163Z,15.54
2018-05-16T19:06:30.499Z,15.56
2018-05-16T19:08:58.829Z,15.52
2018-05-16T19:11:27.177Z,15.47
2018-05-16T19:13:55.517Z,15.43
2018-05-16T19:16:23.859Z,15.42
2018-05-16T19:18:52.238Z,15.37
2018-05-16T19:21:20.537Z,15.28
2018-05-16T19:23:48.895Z,15.16
2018-05-16T19:26:17.230Z,15.03
2018-05-16T19:28:45.605Z,14.99
2018-05-16T19:31:13.925Z,14.95
2018-05-16T19:33:42.263Z,15.00
2018-05-16T19:36:11.363Z,14.98
2018-05-16T19:38:40.542Z,14.80
2018-05-16T19:41:09.671Z,14.68
2018-05-16T19:43:38.017Z,14.62
2018-05-16T19:46:07.333Z,14.55
2018-05-16T19:48:35.608Z,14.52
2018-05-16T19:51:05.090Z,14.57
2018-05-16T19:53:33.412Z,14.32
2018-05-16T19:56:01.792Z,14.29
2018-05-16T19:58:30.180Z,14.15
2018-05-16T20:00:58.515Z,14.12
2018-05-16T20:03:26.896Z,14.07
2018-05-16T20:05:55.281Z,14.03
2018-05-16T20:08:23.621Z,13.97
2018-05-16T20:10:51.953Z,13.93
2018-05-16T20:13:20.282Z,13.79
2018-05-16T20:15:48.635Z,13.74
2018-05-16T20:18:16.969Z,13.70
2018-05-16T20:20:46.061Z,13.60
2018-05-16T20:23:14.429Z,13.54
2018-05-16T20:25:42.789Z,13.51
2018-05-16T20:28:11.100Z,13.49
2018-05-16T20:30:40.345Z,13.38
2018-05-16T20:33:08.684Z,13.34
2018-05-16T20:35:37.773Z,13.35
2018-05-16T20:38:06.889Z,13.29
2018-05-16T20:40:35.317Z,13.30
2018-05-16T20:43:03.640Z,13.26
2018-05-16T20:45:32.007Z,13.19
2018-05-16T20:48:01.167Z,13.15
2018-05-16T20:50:29.494Z,13.14
2018-05-16T20:52:58.562Z,13.21
2018-05-16T20:55:26.993Z,13.09
2018-05-16T20:57:55.337Z,13.09
2018-05-16T21:00:24.513Z,13.15
2018-05-16T21:02:52.909Z,13.08
2018-05-16T21:05:22.124Z,13.10
2018-05-16T21:07:50.527Z,13.04
2018-05-16T21:10:18.865Z,13.02
2018-05-16T21:12:48.063Z,13.07
2018-05-16T21:15:17.127Z,12.98
2018-05-16T21:17:45.526Z,12.93
2018-05-16T21:20:14.593Z,12.88
2018-05-16T21:22:42.947Z,12.87
2018-05-16T21:25:11.242Z,12.84
2018-05-16T21:27:39.556Z,12.86
2018-05-16T21:30:07.905Z,12.79
2018-05-16T21:32:36.311Z,12.79
2018-05-16T21:35:04.666Z,12.80
2018-05-16T21:37:32.978Z,12.76
2018-05-16T21:40:01.332Z,12.81
2018-05-16T21:42:29.627Z,12.73
2018-05-16T21:44:57.947Z,12.76
2018-05-16T21:47:26.220Z,12.67
2018-05-16T21:49:54.550Z,12.57
2018-05-16T21:52:22.876Z,12.57
2018-05-16T21:54:51.253Z,12.56
2018-05-16T21:57:19.607Z,12.57
2018-05-16T21:59:48.694Z,12.46
2018-05-16T22:02:16.973Z,12.52
2018-05-16T22:04:46.080Z,12.45
2018-05-16T22:07:15.157Z,12.38
2018-05-16T22:09:43.481Z,12.45
2018-05-16T22:12:11.779Z,12.32
2018-05-16T22:14:40.117Z,12.28
2018-05-16T22:17:09.153Z,12.22
2018-05-16T22:19:37.507Z,12.16
2018-05-16T22:22:05.863Z,12.14
2018-05-16T22:24:35.027Z,12.14
2018-05-16T22:27:03.649Z,12.11
2018-05-16T22:29:32.717Z,12.05
2018-05-16T22:32:06.528Z,11.90
2018-05-16T22:34:40.404Z,11.93
2018-05-16T22:37:14.003Z,11.92
2018-05-16T22:39:47.840Z,11.92
2018-05-16T22:42:21.924Z,11.84
2018-05-16T22:44:55.653Z,11.75
2018-05-16T22:47:23.960Z,11.79
2018-05-16T22:49:53.029Z,11.75
2018-05-16T22:52:21.374Z,11.69
2018-05-16T22:54:49.631Z,11.69
2018-05-16T22:57:17.997Z,11.65
2018-05-16T22:59:47.075Z,11.51
2018-05-16T23:02:15.410Z,11.62
2018-05-16T23:04:43.692Z,11.49
2018-05-16T23:07:11.987Z,11.42
2018-05-16T23:09:40.322Z,11.36
2018-05-16T23:12:09.045Z,11.33
2018-05-16T23:14:37.359Z,11.31
2018-05-16T23:17:06.655Z,11.33
2018-05-16T23:19:35.149Z,11.23
2018-05-16T23:22:04.203Z,11.23
2018-05-16T23:24:32.632Z,11.21
2018-05-16T23:27:01.721Z,11.44
2018-05-16T23:29:30.784Z,11.28
2018-05-16T23:31:59.089Z,11.49
2018-05-16T23:34:28.142Z,11.19
2018-05-16T23:36:56.418Z,11.14
2018-05-16T23:39:24.762Z,10.98
2018-05-16T23:41:53.116Z,10.80
2018-05-16T23:44:22.206Z,10.86
2018-05-16T23:46:51.281Z,10.79
2018-05-16T23:49:19.569Z,10.82
2018-05-16T23:51:47.882Z,10.73
2018-05-16T23:54:16.191Z,10.63
2018-05-16T23:56:44.524Z,10.58
2018-05-16T23:59:13.554Z,10.59
